createdAt,value
2018-06-27T00:01:33.961Z,18.46
2018-06-27T00:04:36.158Z,18.41
2018-06-27T00:07:38.282Z,18.22
2018-06-27T00:10:40.356Z,17.94
2018-06-27T00:13:42.448Z,17.90
2018-06-27T00:16:44.670Z,17.83
2018-06-27T00:19:47.792Z,17.91
2018-06-27T00:22:49.894Z,17.78
2018-06-27T00:25:56.547Z,17.77
2018-06-27T00:28:59.696Z,17.79
2018-06-27T00:32:01.735Z,17.81
2018-06-27T00:35:04.235Z,17.83
2018-06-27T00:38:10.800Z,17.89
2018-06-27T00:41:12.832Z,17.83
2018-06-27T00:44:14.901Z,17.82
2018-06-27T00:47:17.530Z,17.71
2018-06-27T00:50:19.752Z,17.72
2018-06-27T00:53:26.333Z,17.68
2018-06-27T00:56:28.434Z,17.71
2018-06-27T00:59:30.435Z,17.64
2018-06-27T01:02:32.356Z,17.40
2018-06-27T01:05:34.503Z,17.30
2018-06-27T01:08:36.551Z,17.29
2018-06-27T01:11:38.804Z,17.26
2018-06-27T01:14:41.019Z,17.19
2018-06-27T01:17:50.088Z,17.08
2018-06-27T01:20:52.106Z,17.08
2018-06-27T01:23:54.184Z,17.09
2018-06-27T01:26:56.254Z,16.89
2018-06-27T01:29:58.327Z,16.96
2018-06-27T01:33:00.429Z,16.88
2018-06-27T01:36:02.552Z,16.91
2018-06-27T01:39:06.330Z,16.84
2018-06-27T01:42:08.472Z,16.86
2018-06-27T01:45:10.538Z,16.81
2018-06-27T01:48:12.590Z,16.68
2018-06-27T01:51:14.684Z,16.76
2018-06-27T01:54:17.487Z,16.79
2018-06-27T01:57:19.482Z,16.65
2018-06-27T02:00:21.584Z,16.57
2018-06-27T02:03:23.648Z,16.59
2018-06-27T02:06:25.742Z,16.66
2018-06-27T02:09:27.799Z,16.61
2018-06-27T02:12:29.847Z,16.55
2018-06-27T02:15:31.936Z,16.55
2018-06-27T02:18:33.971Z,16.40
2018-06-27T02:21:36.039Z,16.35
2018-06-27T02:24:38.000Z,16.32
2018-06-27T02:27:40.100Z,16.35
2018-06-27T02:30:42.276Z,16.36
2018-06-27T02:33:44.678Z,16.38
2018-06-27T02:36:48.639Z,16.45
2018-06-27T02:39:50.748Z,16.37
2018-06-27T02:42:52.860Z,16.28
2018-06-27T02:45:54.848Z,16.20
2018-06-27T02:48:56.943Z,16.30
2018-06-27T02:51:59.007Z,16.26
2018-06-27T02:55:01.074Z,16.26
2018-06-27T02:58:03.253Z,16.17
2018-06-27T03:01:05.371Z,16.10
2018-06-27T03:04:07.492Z,16.12
2018-06-27T03:07:09.553Z,16.09
2018-06-27T03:10:11.590Z,16.13
2018-06-27T03:13:14.697Z,16.16
2018-06-27T03:16:17.829Z,16.18
2018-06-27T03:19:20.006Z,16.21
2018-06-27T03:22:22.056Z,16.27
2018-06-27T03:25:24.094Z,16.25
2018-06-27T03:28:26.189Z,16.28
2018-06-27T03:31:28.243Z,16.33
2018-06-27T03:34:30.336Z,16.26
2018-06-27T03:37:32.395Z,16.13
2018-06-27T03:40:34.541Z,16.07
2018-06-27T03:43:36.632Z,16.07
2018-06-27T03:46:38.608Z,16.09
2018-06-27T03:49:40.770Z,16.09
2018-06-27T03:52:44.870Z,16.06
2018-06-27T03:55:46.966Z,16.08
2018-06-27T03:58:49.127Z,16.06
2018-06-27T04:01:51.106Z,16.03
2018-06-27T04:04:53.454Z,16.09
2018-06-27T04:07:55.545Z,16.07
2018-06-27T04:10:57.622Z,16.12
2018-06-27T04:13:59.664Z,16.10
2018-06-27T04:17:01.737Z,16.16
2018-06-27T04:20:03.860Z,16.21
2018-06-27T04:23:05.899Z,16.20
2018-06-27T04:26:07.956Z,16.27
2018-06-27T04:29:11.024Z,16.27
2018-06-27T04:32:13.242Z,16.38
2018-06-27T04:35:15.287Z,16.45
2018-06-27T04:38:17.951Z,16.50
2018-06-27T04:41:20.071Z,16.41
2018-06-27T04:44:22.107Z,16.48
2018-06-27T04:47:24.091Z,16.51
2018-06-27T04:50:26.236Z,16.64
2018-06-27T04:53:28.285Z,16.73
2018-06-27T04:56:30.413Z,16.78
2018-06-27T04:59:32.660Z,16.80
2018-06-27T05:02:34.706Z,16.84
2018-06-27T05:05:36.831Z,16.86
2018-06-27T05:08:38.950Z,17.04
2018-06-27T05:11:41.066Z,17.15
2018-06-27T05:14:43.116Z,17.13
2018-06-27T05:17:45.291Z,17.12
2018-06-27T05:20:48.117Z,17.13
2018-06-27T05:23:50.218Z,17.21
2018-06-27T05:26:52.283Z,17.18
2018-06-27T05:29:54.376Z,17.20
2018-06-27T05:32:56.477Z,17.26
2018-06-27T05:35:58.624Z,17.33
2018-06-27T05:39:00.636Z,17.35
2018-06-27T05:42:02.803Z,17.53
2018-06-27T05:45:05.076Z,17.61
2018-06-27T05:48:07.216Z,17.67
2018-06-27T05:51:09.231Z,17.62
2018-06-27T05:54:16.849Z,17.64
2018-06-27T05:57:20.014Z,17.66
2018-06-27T06:00:22.019Z,17.78
2018-06-27T06:03:24.083Z,17.87
2018-06-27T06:06:26.159Z,17.79
2018-06-27T06:09:28.116Z,17.95
2018-06-27T06:12:30.255Z,18.06
2018-06-27T06:15:32.290Z,18.24
2018-06-27T06:18:34.324Z,18.27
2018-06-27T06:21:36.417Z,18.27
2018-06-27T06:24:41.187Z,18.38
2018-06-27T06:27:43.192Z,18.55
2018-06-27T06:30:45.451Z,18.65
2018-06-27T06:33:49.090Z,18.68
2018-06-27T06:36:51.150Z,18.73
2018-06-27T06:39:53.267Z,18.82
2018-06-27T06:42:55.440Z,18.91
2018-06-27T06:45:57.543Z,18.91
2018-06-27T06:48:59.527Z,19.02
2018-06-27T06:52:01.646Z,19.11
2018-06-27T06:55:04.865Z,19.28
2018-06-27T06:58:06.993Z,19.45
2018-06-27T07:01:10.046Z,19.51
2018-06-27T07:04:12.112Z,19.62
2018-06-27T07:07:14.484Z,19.63
2018-06-27T07:10:16.538Z,19.72
2018-06-27T07:13:19.682Z,19.74
2018-06-27T07:16:21.731Z,19.96
2018-06-27T07:19:23.780Z,20.10
2018-06-27T07:22:25.764Z,20.16
2018-06-27T07:25:27.820Z,20.23
2018-06-27T07:28:29.967Z,20.44
2018-06-27T07:31:31.952Z,20.64
2018-06-27T07:34:33.931Z,20.82
2018-06-27T07:37:36.060Z,20.87
2018-06-27T07:40:38.127Z,20.81
2018-06-27T07:43:40.556Z,20.84
2018-06-27T07:46:42.659Z,20.80
2018-06-27T07:49:44.750Z,21.03
2018-06-27T07:52:46.612Z,21.18
2018-06-27T07:55:49.716Z,21.40
2018-06-27T07:58:51.997Z,21.43
2018-06-27T08:01:54.091Z,21.27
2018-06-27T08:04:56.031Z,21.39
2018-06-27T08:07:58.044Z,21.49
2018-06-27T08:11:00.080Z,21.72
2018-06-27T08:14:02.132Z,21.73
2018-06-27T08:17:04.524Z,21.85
2018-06-27T08:20:06.907Z,21.97
2018-06-27T08:23:09.020Z,21.79
2018-06-27T08:26:11.714Z,21.79
2018-06-27T08:29:13.731Z,22.14
2018-06-27T08:32:15.826Z,22.32
2018-06-27T08:35:17.863Z,22.18
2018-06-27T08:38:21.044Z,22.43
2018-06-27T08:41:23.165Z,22.31
2018-06-27T08:44:25.243Z,22.54
2018-06-27T08:47:27.152Z,22.71
2018-06-27T08:50:29.289Z,22.57
2018-06-27T08:53:31.424Z,22.32
2018-06-27T08:56:33.477Z,22.62
2018-06-27T08:59:35.583Z,22.76
2018-06-27T09:02:37.615Z,22.90
2018-06-27T09:05:39.671Z,22.91
2018-06-27T09:08:41.786Z,22.82
2018-06-27T09:11:43.856Z,23.04
2018-06-27T09:14:45.786Z,23.16
2018-06-27T09:17:47.895Z,23.35
2018-06-27T09:20:51.043Z,23.89
2018-06-27T09:23:53.096Z,24.18
2018-06-27T09:26:55.208Z,23.99
2018-06-27T09:29:57.403Z,24.04
2018-06-27T09:32:59.412Z,24.41
2018-06-27T09:36:01.432Z,24.70
2018-06-27T09:39:07.199Z,24.94
2018-06-27T09:42:09.248Z,24.40
2018-06-27T09:45:11.478Z,24.15
2018-06-27T09:48:13.517Z,24.04
2018-06-27T09:51:15.552Z,24.04
2018-06-27T09:54:17.630Z,24.16
2018-06-27T09:57:20.931Z,24.23
2018-06-27T10:00:33.567Z,24.47
2018-06-27T10:03:35.616Z,24.82
2018-06-27T10:06:37.667Z,25.04
2018-06-27T10:09:39.773Z,25.04
2018-06-27T10:12:41.931Z,24.84
2018-06-27T10:15:44.103Z,24.57
2018-06-27T10:18:46.177Z,24.46
2018-06-27T10:21:48.853Z,24.32
2018-06-27T10:24:50.922Z,24.22
2018-06-27T10:27:52.876Z,24.42
2018-06-27T10:30:54.964Z,24.54
2018-06-27T10:33:59.089Z,24.37
2018-06-27T10:37:01.104Z,24.53
2018-06-27T10:40:03.240Z,24.92
2018-06-27T10:43:05.365Z,25.39
2018-06-27T10:46:07.362Z,25.32
2018-06-27T10:49:09.486Z,25.68
2018-06-27T10:52:12.619Z,25.66
2018-06-27T10:55:20.203Z,25.93
2018-06-27T10:58:22.199Z,25.66
2018-06-27T11:01:24.203Z,25.44
2018-06-27T11:04:26.298Z,25.45
2018-06-27T11:07:28.363Z,25.32
2018-06-27T11:13:31.916Z,25.22
2018-06-27T11:16:34.237Z,25.30
2018-06-27T11:19:36.808Z,25.26
2018-06-27T11:22:38.935Z,25.28
2018-06-27T11:25:41.048Z,25.61
2018-06-27T11:28:43.156Z,25.71
2018-06-27T11:31:45.243Z,26.11
2018-06-27T11:34:47.220Z,26.14
2018-06-27T11:37:50.007Z,26.21
2018-06-27T11:40:52.032Z,26.37
2018-06-27T11:43:55.002Z,26.53
2018-06-27T11:46:56.988Z,25.75
2018-06-27T11:49:59.091Z,25.70
2018-06-27T11:53:01.196Z,26.04
2018-06-27T11:56:03.571Z,26.24
2018-06-27T11:59:05.695Z,26.72
2018-06-27T12:02:07.895Z,26.91
2018-06-27T12:05:09.960Z,26.51
2018-06-27T12:08:12.008Z,26.26
2018-06-27T12:11:14.082Z,26.81
2018-06-27T12:14:16.168Z,26.99
2018-06-27T12:17:18.235Z,26.97
2018-06-27T12:20:20.274Z,27.27
2018-06-27T12:23:25.921Z,27.31
2018-06-27T12:26:28.057Z,27.69
2018-06-27T12:29:30.049Z,27.33
2018-06-27T12:32:32.220Z,27.07
2018-06-27T12:35:34.330Z,27.13
2018-06-27T12:38:36.670Z,26.80
2018-06-27T12:41:38.814Z,26.64
2018-06-27T12:44:40.842Z,26.89
2018-06-27T12:47:43.151Z,27.07
2018-06-27T12:50:45.207Z,27.04
2018-06-27T12:53:47.449Z,26.96
2018-06-27T12:56:49.582Z,27.03
2018-06-27T12:59:51.819Z,27.53
2018-06-27T13:02:53.886Z,27.83
2018-06-27T13:05:55.830Z,28.24
2018-06-27T13:08:58.089Z,28.25
2018-06-27T13:12:00.045Z,28.38
2018-06-27T13:15:02.141Z,28.23
2018-06-27T13:18:04.352Z,28.21
2018-06-27T13:21:06.499Z,28.40
2018-06-27T13:24:08.521Z,28.21
2018-06-27T13:27:10.637Z,28.24
2018-06-27T13:30:12.738Z,27.73
2018-06-27T13:33:14.890Z,27.83
2018-06-27T13:36:17.083Z,27.76
2018-06-27T13:39:19.436Z,27.94
2018-06-27T13:42:22.427Z,27.91
2018-06-27T13:45:24.673Z,27.95
2018-06-27T13:48:26.741Z,28.17
2018-06-27T13:51:29.080Z,28.53
2018-06-27T13:54:31.207Z,28.85
2018-06-27T13:57:33.270Z,28.94
2018-06-27T14:00:35.344Z,29.07
2018-06-27T14:03:38.457Z,28.72
2018-06-27T14:06:40.602Z,27.94
2018-06-27T14:09:42.683Z,27.77
2018-06-27T14:12:45.677Z,27.43
2018-06-27T14:15:47.867Z,27.49
2018-06-27T14:18:50.019Z,27.81
2018-06-27T14:21:51.943Z,28.18
2018-06-27T14:24:55.033Z,28.61
2018-06-27T14:27:57.158Z,28.56
2018-06-27T14:30:59.339Z,28.03
2018-06-27T14:34:01.469Z,27.74
2018-06-27T14:37:04.544Z,27.45
2018-06-27T14:40:06.921Z,27.71
2018-06-27T14:43:08.864Z,28.13
2018-06-27T14:46:12.055Z,28.17
2018-06-27T14:49:15.177Z,28.09
2018-06-27T14:52:17.242Z,27.74
2018-06-27T14:55:19.407Z,27.38
2018-06-27T14:58:21.543Z,27.60
2018-06-27T15:01:23.840Z,27.89
2018-06-27T15:04:25.973Z,28.30
2018-06-27T15:07:29.341Z,28.13
2018-06-27T15:10:31.405Z,27.89
2018-06-27T15:13:33.448Z,27.90
2018-06-27T15:16:36.751Z,27.89
2018-06-27T15:19:38.892Z,27.92
2018-06-27T15:22:40.991Z,28.02
2018-06-27T15:25:43.112Z,28.07
2018-06-27T15:28:45.343Z,28.26
2018-06-27T15:31:47.446Z,28.45
2018-06-27T15:34:50.714Z,28.51
2018-06-27T15:37:52.814Z,28.23
2018-06-27T15:40:54.748Z,28.31
2018-06-27T15:43:57.024Z,28.64
2018-06-27T15:46:59.104Z,28.65
2018-06-27T15:50:02.295Z,28.39
2018-06-27T15:53:06.398Z,28.09
2018-06-27T15:56:08.511Z,28.19
2018-06-27T15:59:10.579Z,28.36
2018-06-27T16:02:12.523Z,28.45
2018-06-27T16:05:14.623Z,28.42
2018-06-27T16:08:16.803Z,28.11
2018-06-27T16:11:19.013Z,27.97
2018-06-27T16:14:21.170Z,27.86
2018-06-27T16:17:23.560Z,27.98
2018-06-27T16:20:26.365Z,28.15
2018-06-27T16:23:28.466Z,28.20
2018-06-27T16:26:30.612Z,28.02
2018-06-27T16:29:37.769Z,28.01
2018-06-27T16:32:39.884Z,27.76
2018-06-27T16:35:42.087Z,27.48
2018-06-27T16:38:44.116Z,27.40
2018-06-27T16:41:46.095Z,27.54
2018-06-27T16:44:48.221Z,27.49
2018-06-27T16:47:50.468Z,27.48
2018-06-27T16:50:52.577Z,27.42
2018-06-27T16:53:54.614Z,27.56
2018-06-27T16:56:56.795Z,27.72
2018-06-27T16:59:59.050Z,27.85
2018-06-27T17:03:01.234Z,27.84
2018-06-27T17:06:03.395Z,27.81
2018-06-27T17:09:07.668Z,27.71
2018-06-27T17:12:10.628Z,27.66
2018-06-27T17:15:12.727Z,27.46
2018-06-27T17:18:14.872Z,27.46
2018-06-27T17:21:16.931Z,27.31
2018-06-27T17:24:19.124Z,27.37
2018-06-27T17:27:21.332Z,27.33
2018-06-27T17:30:23.581Z,27.25
2018-06-27T17:33:25.647Z,27.25
2018-06-27T17:36:27.839Z,27.30
2018-06-27T17:39:30.945Z,27.33
2018-06-27T17:42:33.276Z,27.28
2018-06-27T17:45:35.964Z,27.34
2018-06-27T17:48:38.551Z,27.31
2018-06-27T17:51:40.804Z,27.11
2018-06-27T17:54:42.964Z,27.10
2018-06-27T17:57:44.955Z,27.01
2018-06-27T18:00:47.103Z,26.95
2018-06-27T18:03:49.274Z,26.91
2018-06-27T18:06:51.472Z,26.83
2018-06-27T18:09:53.630Z,26.82
2018-06-27T18:12:55.745Z,26.76
2018-06-27T18:15:57.923Z,26.63
2018-06-27T18:19:00.069Z,26.56
2018-06-27T18:22:02.319Z,26.38
2018-06-27T18:25:04.818Z,26.28
2018-06-27T18:28:07.464Z,26.18
2018-06-27T18:31:09.496Z,26.07
2018-06-27T18:34:11.461Z,26.00
2018-06-27T18:37:14.593Z,26.00
2018-06-27T18:40:16.782Z,25.98
2018-06-27T18:43:18.810Z,25.81
2018-06-27T18:46:21.028Z,25.74
2018-06-27T18:49:25.391Z,25.74
2018-06-27T18:52:27.523Z,25.64
2018-06-27T18:55:29.609Z,25.56
2018-06-27T18:58:31.846Z,25.42
2018-06-27T19:01:36.929Z,25.29
2018-06-27T19:04:39.123Z,25.17
2018-06-27T19:07:41.225Z,25.10
2018-06-27T19:10:43.380Z,24.97
2018-06-27T19:13:46.561Z,24.81
2018-06-27T19:16:48.768Z,24.77
2018-06-27T19:19:51.111Z,24.71
2018-06-27T19:22:53.353Z,24.63
2018-06-27T19:25:55.457Z,24.56
2018-06-27T19:28:57.548Z,24.48
2018-06-27T19:31:59.735Z,24.37
2018-06-27T19:35:01.764Z,24.36
2018-06-27T19:38:04.086Z,24.29
2018-06-27T19:41:07.539Z,24.20
2018-06-27T19:44:09.744Z,24.16
2018-06-27T19:47:11.891Z,24.15
2018-06-27T19:50:14.044Z,24.08
2018-06-27T19:53:16.191Z,24.00
2018-06-27T19:56:18.297Z,23.84
2018-06-27T19:59:21.453Z,23.73
2018-06-27T20:02:23.687Z,23.62
2018-06-27T20:05:25.868Z,23.58
2018-06-27T20:08:27.916Z,23.49
2018-06-27T20:11:30.125Z,23.46
2018-06-27T20:14:32.560Z,23.47
2018-06-27T20:17:34.432Z,23.46
2018-06-27T20:20:36.651Z,23.39
2018-06-27T20:23:38.646Z,23.36
2018-06-27T20:26:41.845Z,23.30
2018-06-27T20:29:44.090Z,23.26
2018-06-27T20:32:46.116Z,23.17
2018-06-27T20:35:48.345Z,23.10
2018-06-27T20:38:50.346Z,23.10
2018-06-27T20:41:52.549Z,23.13
2018-06-27T20:44:54.613Z,23.07
2018-06-27T20:47:56.757Z,23.05
2018-06-27T20:50:58.826Z,22.99
2018-06-27T20:54:01.359Z,22.84
2018-06-27T20:57:03.658Z,22.85
2018-06-27T21:00:06.449Z,22.86
2018-06-27T21:03:08.527Z,22.81
2018-06-27T21:06:10.658Z,22.76
2018-06-27T21:09:12.768Z,22.68
2018-06-27T21:12:16.153Z,22.62
2018-06-27T21:15:18.255Z,22.64
2018-06-27T21:18:20.348Z,22.62
2018-06-27T21:21:22.439Z,22.56
2018-06-27T21:24:24.864Z,22.51
2018-06-27T21:27:27.121Z,22.48
2018-06-27T21:30:30.246Z,22.39
2018-06-27T21:33:32.480Z,22.27
2018-06-27T21:36:34.559Z,22.20
2018-06-27T21:39:36.739Z,22.21
2018-06-27T21:42:38.858Z,22.19
2018-06-27T21:45:40.877Z,22.07
2018-06-27T21:48:43.045Z,21.98
2018-06-27T21:51:46.231Z,22.01
2018-06-27T21:54:48.359Z,22.03
2018-06-27T21:57:50.463Z,22.03
2018-06-27T22:00:52.601Z,21.96
2018-06-27T22:03:54.687Z,21.88
2018-06-27T22:06:56.775Z,21.75
2018-06-27T22:09:58.918Z,21.71
2018-06-27T22:13:01.131Z,21.64
2018-06-27T22:16:03.276Z,21.57
2018-06-27T22:19:05.409Z,21.57
2018-06-27T22:22:07.566Z,21.61
2018-06-27T22:25:09.780Z,21.62
2018-06-27T22:28:11.940Z,21.56
2018-06-27T22:31:13.922Z,21.48
2018-06-27T22:34:17.323Z,21.41
2018-06-27T22:37:19.438Z,21.40
2018-06-27T22:40:21.504Z,21.36
2018-06-27T22:43:23.619Z,21.36
2018-06-27T22:46:25.650Z,21.38
2018-06-27T22:49:28.727Z,21.37
2018-06-27T22:52:31.810Z,21.36
2018-06-27T22:55:33.982Z,21.32
2018-06-27T22:58:35.935Z,21.24
2018-06-27T23:01:38.075Z,21.21
2018-06-27T23:04:42.263Z,21.17
2018-06-27T23:07:44.307Z,21.13
2018-06-27T23:10:47.689Z,21.13
2018-06-27T23:13:49.795Z,21.11
2018-06-27T23:16:51.939Z,21.16
2018-06-27T23:19:54.061Z,21.07
2018-06-27T23:22:56.085Z,21.06
2018-06-27T23:25:58.184Z,21.08
2018-06-27T23:29:00.180Z,21.05
2018-06-27T23:32:02.216Z,21.01
2018-06-27T23:35:04.420Z,20.95
2018-06-27T23:38:06.452Z,20.94
2018-06-27T23:41:10.616Z,20.86
2018-06-27T23:44:13.780Z,20.87
2018-06-27T23:47:16.871Z,20.79
2018-06-27T23:50:19.015Z,20.80
2018-06-27T23:53:21.026Z,20.81
2018-06-27T23:56:23.100Z,20.79
2018-06-27T23:59:25.203Z,20.78
